createdAt,value
2023-04-21T00:01:39.427Z,81.76
2023-04-21T00:04:06.999Z,81.74
2023-04-21T00:06:34.245Z,82.25
2023-04-21T00:09:00.685Z,82.39
2023-04-21T00:11:27.122Z,83.18
2023-04-21T00:13:53.638Z,82.38
2023-04-21T00:16:20.090Z,83.89
2023-04-21T00:18:47.983Z,83.25
2023-04-21T00:21:17.527Z,84.12
2023-04-21T00:23:44.011Z,84.82
2023-04-21T00:26:10.668Z,86.26
2023-04-21T00:28:37.144Z,86.37
2023-04-21T00:31:04.061Z,86.26
2023-04-21T00:33:35.806Z,87.03
2023-04-21T00:36:02.261Z,87.56
2023-04-21T00:38:28.754Z,87.12
2023-04-21T00:40:55.412Z,87.88
2023-04-21T00:43:21.961Z,88.07
2023-04-21T00:45:48.502Z,88.70
2023-04-21T00:48:15.256Z,88.84
2023-04-21T00:50:42.573Z,89.52
2023-04-21T00:53:09.921Z,90.31
2023-04-21T00:55:37.045Z,90.34
2023-04-21T00:58:20.511Z,90.02
2023-04-21T01:00:47.746Z,91.04
2023-04-21T01:03:14.468Z,90.88
2023-04-21T01:05:42.430Z,90.79
2023-04-21T01:08:14.289Z,90.84
2023-04-21T01:10:43.613Z,91.67
2023-04-21T01:13:10.046Z,91.33
2023-04-21T01:15:36.591Z,91.78
2023-04-21T01:18:05.159Z,91.52
2023-04-21T01:20:31.802Z,92.34
2023-04-21T01:23:01.336Z,92.25
2023-04-21T01:25:28.614Z,92.26
2023-04-21T01:27:55.919Z,92.15
2023-04-21T01:30:22.402Z,92.98
2023-04-21T01:32:52.249Z,92.21
2023-04-21T01:35:19.902Z,92.90
2023-04-21T01:37:46.325Z,93.29
2023-04-21T01:40:15.032Z,93.35
2023-04-21T01:42:43.181Z,93.37
2023-04-21T01:45:10.502Z,92.78
2023-04-21T01:47:37.318Z,93.76
2023-04-21T01:50:04.122Z,93.52
2023-04-21T01:52:30.715Z,94.06
2023-04-21T01:54:57.959Z,94.14
2023-04-21T01:57:24.538Z,93.69
2023-04-21T01:59:51.576Z,94.10
2023-04-21T02:02:18.299Z,94.29
2023-04-21T02:04:47.194Z,94.18
2023-04-21T02:07:13.672Z,93.82
2023-04-21T02:09:41.092Z,94.15
2023-04-21T02:12:07.941Z,94.25
2023-04-21T02:14:34.436Z,94.32
2023-04-21T02:17:03.520Z,94.94
2023-04-21T02:19:30.703Z,94.43
2023-04-21T02:21:57.357Z,94.69
2023-04-21T02:24:23.981Z,94.82
2023-04-21T02:26:52.761Z,94.13
2023-04-21T02:29:20.351Z,94.97
2023-04-21T02:31:58.886Z,94.79
2023-04-21T02:34:27.594Z,94.88
2023-04-21T02:36:54.554Z,95.01
2023-04-21T02:39:21.274Z,94.96
2023-04-21T02:41:47.936Z,94.77
2023-04-21T02:44:14.456Z,95.09
2023-04-21T02:46:41.758Z,94.55
2023-04-21T02:49:09.255Z,95.30
2023-04-21T02:51:35.707Z,94.98
2023-04-21T02:54:02.377Z,95.06
2023-04-21T02:56:29.068Z,94.89
2023-04-21T02:58:55.581Z,95.34
2023-04-21T03:01:22.222Z,95.37
2023-04-21T03:03:48.829Z,95.43
2023-04-21T03:06:15.821Z,95.50
2023-04-21T03:08:42.261Z,95.74
2023-04-21T03:11:08.750Z,96.01
2023-04-21T03:13:35.368Z,95.67
2023-04-21T03:16:01.920Z,95.71
2023-04-21T03:18:28.431Z,96.11
2023-04-21T03:21:01.595Z,96.01
2023-04-21T03:23:31.804Z,95.84
2023-04-21T03:25:58.494Z,95.62
2023-04-21T03:28:25.048Z,95.52
2023-04-21T03:30:51.943Z,96.50
2023-04-21T03:33:18.639Z,96.31
2023-04-21T03:35:45.302Z,96.19
2023-04-21T03:38:11.808Z,96.42
2023-04-21T03:40:38.282Z,95.52
2023-04-21T03:43:04.748Z,95.98
2023-04-21T03:45:35.435Z,96.07
2023-04-21T03:48:01.988Z,96.46
2023-04-21T03:50:29.269Z,96.32
2023-04-21T03:52:55.956Z,96.60
2023-04-21T03:55:24.921Z,95.92
2023-04-21T03:57:51.351Z,95.69
2023-04-21T04:00:17.919Z,96.30
2023-04-21T04:02:44.946Z,96.48
2023-04-21T04:05:13.022Z,97.04
2023-04-21T04:07:40.765Z,96.86
2023-04-21T04:10:07.399Z,96.30
2023-04-21T04:12:33.867Z,96.32
2023-04-21T04:15:00.411Z,96.10
2023-04-21T04:17:27.033Z,96.40
2023-04-21T04:19:53.597Z,96.97
2023-04-21T04:22:20.119Z,96.27
2023-04-21T04:24:47.928Z,96.64
2023-04-21T04:27:14.456Z,96.70
2023-04-21T04:29:41.151Z,97.12
2023-04-21T04:32:10.988Z,97.27
2023-04-21T04:34:38.148Z,96.26
2023-04-21T04:37:04.715Z,96.48
2023-04-21T04:39:31.934Z,96.86
2023-04-21T04:41:58.394Z,96.75
2023-04-21T04:44:25.867Z,97.26
2023-04-21T04:46:52.858Z,96.72
2023-04-21T04:49:19.747Z,96.60
2023-04-21T04:51:47.028Z,96.38
2023-04-21T04:54:14.577Z,97.05
2023-04-21T04:56:41.101Z,96.22
2023-04-21T04:59:08.329Z,97.47
2023-04-21T05:01:34.856Z,96.62
2023-04-21T05:04:01.584Z,97.20
2023-04-21T05:06:28.467Z,97.59
2023-04-21T05:08:54.983Z,96.99
2023-04-21T05:11:22.084Z,96.97
2023-04-21T05:13:48.637Z,97.32
2023-04-21T05:16:15.245Z,97.51
2023-04-21T05:18:41.813Z,97.45
2023-04-21T05:21:08.396Z,97.01
2023-04-21T05:23:35.047Z,96.83
2023-04-21T05:26:04.172Z,96.61
2023-04-21T05:28:31.812Z,97.76
2023-04-21T05:30:58.442Z,97.54
2023-04-21T05:33:26.631Z,96.84
2023-04-21T05:35:53.350Z,97.67
2023-04-21T05:38:19.789Z,97.22
2023-04-21T05:40:53.597Z,96.99
2023-04-21T05:43:20.154Z,97.02
2023-04-21T05:45:46.671Z,97.72
2023-04-21T05:48:14.897Z,97.82
2023-04-21T05:50:41.595Z,97.10
2023-04-21T05:53:08.183Z,98.15
2023-04-21T05:55:44.527Z,97.62
2023-04-21T05:58:11.011Z,97.48
2023-04-21T06:00:37.868Z,97.40
2023-04-21T06:03:04.522Z,97.46
2023-04-21T06:05:31.338Z,97.78
2023-04-21T06:08:00.303Z,98.15
2023-04-21T06:10:26.994Z,97.79
2023-04-21T06:12:53.514Z,97.87
2023-04-21T06:15:20.007Z,97.53
2023-04-21T06:17:46.735Z,97.37
2023-04-21T06:20:13.607Z,97.67
2023-04-21T06:22:40.255Z,97.46
2023-04-21T06:25:07.100Z,97.56
2023-04-21T06:27:33.643Z,96.77
2023-04-21T06:30:00.162Z,97.64
2023-04-21T06:32:26.764Z,98.04
2023-04-21T06:34:53.719Z,97.44
2023-04-21T06:38:13.766Z,98.12
2023-04-21T06:45:25.199Z,97.66
2023-04-21T06:48:23.415Z,97.14
2023-04-21T06:50:50.518Z,97.73
2023-04-21T06:53:18.134Z,97.29
2023-04-21T06:55:44.695Z,97.93
2023-04-21T06:58:11.454Z,97.88
2023-04-21T07:00:38.297Z,97.16
2023-04-21T07:03:04.949Z,97.42
2023-04-21T07:05:32.216Z,96.50
2023-04-21T07:08:01.470Z,97.11
2023-04-21T07:10:28.662Z,95.82
2023-04-21T07:12:56.160Z,96.06
2023-04-21T07:15:22.637Z,95.92
2023-04-21T07:17:49.494Z,92.97
2023-04-21T07:20:17.502Z,91.70
2023-04-21T07:22:44.145Z,92.13
2023-04-21T07:25:11.485Z,91.31
2023-04-21T07:27:38.272Z,91.96
2023-04-21T07:30:05.931Z,91.66
2023-04-21T07:32:33.750Z,92.58
2023-04-21T07:35:01.904Z,92.92
2023-04-21T07:37:28.717Z,92.46
2023-04-21T07:39:55.428Z,92.03
2023-04-21T07:42:22.547Z,91.93
2023-04-21T07:44:49.213Z,91.95
2023-04-21T07:47:15.794Z,89.91
2023-04-21T07:49:42.319Z,90.18
2023-04-21T07:52:08.851Z,88.83
2023-04-21T07:54:35.416Z,89.71
2023-04-21T07:57:02.605Z,88.34
2023-04-21T07:59:35.527Z,87.11
2023-04-21T08:02:02.260Z,87.34
2023-04-21T08:04:29.060Z,85.49
2023-04-21T08:06:59.354Z,85.17
2023-04-21T08:09:26.416Z,86.22
2023-04-21T08:11:55.552Z,84.52
2023-04-21T08:14:26.939Z,85.70
2023-04-21T08:16:56.144Z,86.26
2023-04-21T08:19:23.497Z,85.80
2023-04-21T08:21:54.306Z,86.25
2023-04-21T08:24:23.510Z,87.15
2023-04-21T08:26:51.890Z,86.84
2023-04-21T08:29:21.523Z,85.58
2023-04-21T08:31:48.007Z,86.46
2023-04-21T08:34:23.612Z,83.50
2023-04-21T08:36:51.515Z,83.11
2023-04-21T08:39:18.145Z,82.13
2023-04-21T08:41:44.738Z,81.23
2023-04-21T08:44:13.860Z,79.56
2023-04-21T08:46:45.411Z,81.57
2023-04-21T08:49:14.301Z,81.36
2023-04-21T08:51:41.037Z,82.53
2023-04-21T08:54:08.119Z,80.42
2023-04-21T08:56:34.795Z,82.58
2023-04-21T08:59:01.378Z,81.38
2023-04-21T09:01:27.937Z,82.78
2023-04-21T09:04:12.954Z,82.73
2023-04-21T09:06:43.528Z,81.82
2023-04-21T09:09:10.165Z,81.30
2023-04-21T09:11:36.769Z,81.67
2023-04-21T09:14:03.358Z,82.41
2023-04-21T09:16:35.280Z,81.04
2023-04-21T09:19:01.875Z,80.03
2023-04-21T09:21:30.772Z,79.40
2023-04-21T09:24:06.209Z,80.54
2023-04-21T09:26:34.649Z,78.83
2023-04-21T09:29:06.502Z,78.92
2023-04-21T09:31:35.658Z,77.72
2023-04-21T09:34:07.063Z,79.15
2023-04-21T09:37:03.150Z,77.85
2023-04-21T09:39:43.292Z,75.49
2023-04-21T09:42:17.612Z,76.59
2023-04-21T09:44:53.791Z,77.08
2023-04-21T09:47:31.865Z,76.63
2023-04-21T09:49:59.065Z,75.64
2023-04-21T09:52:29.389Z,75.52
2023-04-21T09:55:05.818Z,75.15
2023-04-21T09:57:32.834Z,76.09
2023-04-21T10:00:14.529Z,75.94
2023-04-21T10:02:51.792Z,74.12
2023-04-21T10:05:19.047Z,75.08
2023-04-21T10:07:50.789Z,74.92
2023-04-21T10:10:35.710Z,74.81
2023-04-21T10:13:02.856Z,74.62
2023-04-21T10:15:40.222Z,74.70
2023-04-21T10:18:16.010Z,71.65
2023-04-21T10:21:09.804Z,70.61
2023-04-21T10:23:42.016Z,70.85
2023-04-21T10:26:09.978Z,72.56
2023-04-21T10:29:09.619Z,70.42
2023-04-21T10:31:39.099Z,70.47
2023-04-21T10:34:08.555Z,69.89
2023-04-21T10:37:18.482Z,71.15
2023-04-21T10:39:48.310Z,71.76
2023-04-21T10:42:31.365Z,69.72
2023-04-21T10:44:57.750Z,70.80
2023-04-21T10:47:38.681Z,71.75
2023-04-21T10:50:16.937Z,72.38
2023-04-21T10:52:51.891Z,70.05
2023-04-21T10:55:18.589Z,71.69
2023-04-21T10:57:45.580Z,72.67
2023-04-21T11:00:17.812Z,72.06
2023-04-21T11:02:45.237Z,72.26
2023-04-21T11:05:13.669Z,72.34
2023-04-21T11:07:40.644Z,71.33
2023-04-21T11:10:08.617Z,71.98
2023-04-21T11:12:39.004Z,71.30
2023-04-21T11:15:10.926Z,71.98
2023-04-21T11:17:43.432Z,68.51
2023-04-21T11:20:10.756Z,70.82
2023-04-21T11:22:40.950Z,70.39
2023-04-21T11:25:21.077Z,70.69
2023-04-21T11:27:54.831Z,70.56
2023-04-21T11:30:22.442Z,70.93
2023-04-21T11:32:55.005Z,70.72
2023-04-21T11:35:21.615Z,71.69
2023-04-21T11:37:50.933Z,72.06
2023-04-21T11:40:19.138Z,71.96
2023-04-21T11:42:46.377Z,71.18
2023-04-21T11:45:22.143Z,72.27
2023-04-21T11:47:53.728Z,70.69
2023-04-21T11:50:52.818Z,69.21
2023-04-21T11:53:21.901Z,68.02
2023-04-21T11:55:48.521Z,67.87
2023-04-21T11:58:35.427Z,64.83
2023-04-21T12:01:09.409Z,66.22
2023-04-21T12:04:03.348Z,65.89
2023-04-21T12:06:30.040Z,65.45
2023-04-21T12:09:00.999Z,66.09
2023-04-21T12:11:31.840Z,65.95
2023-04-21T12:13:59.407Z,65.97
2023-04-21T12:16:27.509Z,64.52
2023-04-21T12:18:57.829Z,65.80
2023-04-21T12:21:28.896Z,64.86
2023-04-21T12:23:55.613Z,64.47
2023-04-21T12:26:27.679Z,64.71
2023-04-21T12:28:54.547Z,66.24
2023-04-21T12:31:21.247Z,63.25
2023-04-21T12:33:47.873Z,63.01
2023-04-21T12:36:16.979Z,64.52
2023-04-21T12:38:46.613Z,62.28
2023-04-21T12:41:14.397Z,63.90
2023-04-21T12:43:40.913Z,62.62
2023-04-21T12:46:07.540Z,60.88
2023-04-21T12:48:34.679Z,62.64
2023-04-21T12:51:01.311Z,63.47
2023-04-21T12:53:30.566Z,64.76
2023-04-21T12:56:04.811Z,64.75
2023-04-21T12:58:32.119Z,64.79
2023-04-21T13:00:58.721Z,63.75
2023-04-21T13:03:25.385Z,64.84
2023-04-21T13:05:51.969Z,64.91
2023-04-21T13:08:18.536Z,64.77
2023-04-21T13:10:47.725Z,65.46
2023-04-21T13:13:14.388Z,64.85
2023-04-21T13:15:40.810Z,65.17
2023-04-21T13:18:07.325Z,65.04
2023-04-21T13:20:34.093Z,63.97
2023-04-21T13:23:00.750Z,65.20
2023-04-21T13:25:27.302Z,64.65
2023-04-21T13:27:53.862Z,64.92
2023-04-21T13:30:20.504Z,64.49
2023-04-21T13:32:48.950Z,65.44
2023-04-21T13:35:15.852Z,65.36
2023-04-21T13:37:42.434Z,64.91
2023-04-21T13:40:10.360Z,65.35
2023-04-21T13:42:43.153Z,65.04
2023-04-21T13:45:10.160Z,65.58
2023-04-21T13:47:36.996Z,64.82
2023-04-21T13:50:04.901Z,65.31
2023-04-21T13:52:31.740Z,63.53
2023-04-21T13:55:00.571Z,62.84
2023-04-21T13:57:30.426Z,62.71
2023-04-21T13:59:56.879Z,61.86
2023-04-21T14:02:25.577Z,62.68
2023-04-21T14:04:53.573Z,62.28
2023-04-21T14:07:20.591Z,62.91
2023-04-21T14:09:47.008Z,62.65
2023-04-21T14:12:14.885Z,61.72
2023-04-21T14:14:43.496Z,62.36
2023-04-21T14:17:10.215Z,60.80
2023-04-21T14:19:37.091Z,61.94
2023-04-21T14:22:03.788Z,61.74
2023-04-21T14:24:32.182Z,61.41
2023-04-21T14:27:03.387Z,61.41
2023-04-21T14:29:30.022Z,61.95
2023-04-21T14:31:58.603Z,59.73
2023-04-21T14:34:29.631Z,59.06
2023-04-21T14:36:56.788Z,58.92
2023-04-21T14:39:23.700Z,58.63
2023-04-21T14:41:50.367Z,59.18
2023-04-21T14:44:18.980Z,59.32
2023-04-21T14:46:56.975Z,59.40
2023-04-21T14:49:30.242Z,59.88
2023-04-21T14:51:58.431Z,58.90
2023-04-21T14:54:24.992Z,57.83
2023-04-21T14:56:51.501Z,58.37
2023-04-21T14:59:17.997Z,58.70
2023-04-21T15:01:47.417Z,58.24
2023-04-21T15:04:14.491Z,58.20
2023-04-21T15:06:41.201Z,58.04
2023-04-21T15:09:07.726Z,58.85
2023-04-21T15:11:34.442Z,58.60
2023-04-21T15:14:01.011Z,59.14
2023-04-21T15:16:29.729Z,57.95
2023-04-21T15:18:56.339Z,58.46
2023-04-21T15:21:22.908Z,58.40
2023-04-21T15:23:51.680Z,58.65
2023-04-21T15:26:21.684Z,58.94
2023-04-21T15:28:48.092Z,59.20
2023-04-21T15:31:14.669Z,59.33
2023-04-21T15:33:41.390Z,60.04
2023-04-21T15:36:07.985Z,60.35
2023-04-21T15:38:42.035Z,60.07
2023-04-21T15:41:08.947Z,60.14
2023-04-21T15:43:35.517Z,59.82
2023-04-21T15:46:02.163Z,59.91
2023-04-21T15:48:28.712Z,59.19
2023-04-21T15:51:04.835Z,59.64
2023-04-21T15:59:36.857Z,61.28
2023-04-21T16:02:03.847Z,61.35
2023-04-21T16:04:30.834Z,61.56
2023-04-21T16:06:57.572Z,60.69
2023-04-21T16:09:24.515Z,60.41
2023-04-21T16:11:51.395Z,60.95
2023-04-21T16:14:18.929Z,60.36
2023-04-21T16:16:45.758Z,60.61
2023-04-21T16:19:12.580Z,61.20
2023-04-21T16:21:40.325Z,60.93
2023-04-21T16:24:08.141Z,60.44
2023-04-21T16:26:36.700Z,60.11
2023-04-21T16:29:08.195Z,59.78
2023-04-21T16:31:42.454Z,60.46
2023-04-21T16:34:09.248Z,60.27
2023-04-21T16:36:36.266Z,60.16
2023-04-21T16:39:06.680Z,61.12
2023-04-21T16:41:33.364Z,61.39
2023-04-21T16:43:59.858Z,60.80
2023-04-21T16:46:26.411Z,60.98
2023-04-21T16:48:53.064Z,61.20
2023-04-21T16:51:19.575Z,62.01
2023-04-21T16:53:46.148Z,61.68
2023-04-21T16:56:12.959Z,61.29
2023-04-21T16:58:49.761Z,61.33
2023-04-21T17:01:20.872Z,61.17
2023-04-21T17:03:47.598Z,61.64
2023-04-21T17:06:21.065Z,61.54
2023-04-21T17:08:48.216Z,61.41
2023-04-21T17:11:14.719Z,61.57
2023-04-21T17:13:41.294Z,61.57
2023-04-21T17:16:08.106Z,60.92
2023-04-21T17:18:35.394Z,61.29
2023-04-21T17:21:01.971Z,61.56
2023-04-21T17:23:28.637Z,62.23
2023-04-21T17:25:55.166Z,62.16
2023-04-21T17:28:21.703Z,62.53
2023-04-21T17:30:48.178Z,62.38
2023-04-21T17:33:17.321Z,62.04
2023-04-21T17:35:59.987Z,62.17
2023-04-21T17:38:29.461Z,62.45
2023-04-21T17:40:56.078Z,62.49
2023-04-21T17:43:22.647Z,62.66
2023-04-21T17:45:51.232Z,61.90
2023-04-21T17:48:17.740Z,61.84
2023-04-21T17:51:04.680Z,63.07
2023-04-21T17:53:31.444Z,63.34
2023-04-21T17:55:58.303Z,64.65
2023-04-21T17:58:27.982Z,64.80
2023-04-21T18:00:57.800Z,64.28
2023-04-21T18:03:24.721Z,64.34
2023-04-21T18:05:51.382Z,65.13
2023-04-21T18:08:17.913Z,65.71
2023-04-21T18:10:44.491Z,68.68
2023-04-21T18:13:11.164Z,73.12
2023-04-21T18:15:38.472Z,76.81
2023-04-21T18:18:05.389Z,84.19
2023-04-21T18:20:32.417Z,87.09
2023-04-21T18:22:59.619Z,87.27
2023-04-21T18:25:40.780Z,88.31
2023-04-21T18:28:08.380Z,89.05
2023-04-21T18:30:34.887Z,89.52
2023-04-21T18:33:01.608Z,90.65
2023-04-21T18:35:28.264Z,92.12
2023-04-21T18:37:57.495Z,92.81
2023-04-21T18:40:24.114Z,91.09
2023-04-21T18:42:50.772Z,92.28
2023-04-21T18:45:18.602Z,91.08
2023-04-21T18:47:46.125Z,89.72
2023-04-21T18:50:20.337Z,89.25
2023-04-21T18:52:52.485Z,90.48
2023-04-21T18:55:30.684Z,89.18
2023-04-21T18:58:00.365Z,89.90
2023-04-21T19:00:27.234Z,89.84
2023-04-21T19:02:54.280Z,90.00
2023-04-21T19:08:04.008Z,90.28
2023-04-21T19:10:37.812Z,89.86
2023-04-21T19:13:04.715Z,91.22
2023-04-21T19:15:31.405Z,90.28
2023-04-21T19:17:57.939Z,89.74
2023-04-21T19:20:24.766Z,90.56
2023-04-21T19:22:51.367Z,90.55
2023-04-21T19:25:18.071Z,90.69
2023-04-21T19:27:46.245Z,91.00
2023-04-21T19:30:13.045Z,90.64
2023-04-21T19:32:39.522Z,91.14
2023-04-21T19:35:06.868Z,91.72
2023-04-21T19:37:35.152Z,91.18
2023-04-21T19:40:03.446Z,91.69
2023-04-21T19:42:30.827Z,92.03
2023-04-21T19:44:57.504Z,92.68
2023-04-21T19:47:23.993Z,92.50
2023-04-21T19:49:50.794Z,92.94
2023-04-21T19:52:17.299Z,92.03
2023-04-21T19:54:44.203Z,92.63
2023-04-21T19:57:10.737Z,92.67
2023-04-21T19:59:37.756Z,92.80
2023-04-21T20:02:04.816Z,93.42
2023-04-21T20:04:31.795Z,93.37
2023-04-21T20:06:58.643Z,93.34
2023-04-21T20:09:25.160Z,93.89
2023-04-21T20:11:55.654Z,93.50
2023-04-21T20:14:22.189Z,93.66
2023-04-21T20:16:48.835Z,93.46
2023-04-21T20:19:17.085Z,93.32
2023-04-21T20:21:54.864Z,93.54
2023-04-21T20:24:21.439Z,93.09
2023-04-21T20:26:47.988Z,93.33
2023-04-21T20:29:14.965Z,93.21
2023-04-21T20:31:41.518Z,93.28
2023-04-21T20:34:08.522Z,93.54
2023-04-21T20:36:37.313Z,93.13
2023-04-21T20:39:07.374Z,94.27
2023-04-21T20:41:36.460Z,93.90
2023-04-21T20:44:05.561Z,93.63
2023-04-21T20:46:39.830Z,93.67
2023-04-21T20:49:31.667Z,93.61
2023-04-21T20:51:59.548Z,93.75
2023-04-21T20:54:26.058Z,92.90
2023-04-21T20:56:53.095Z,92.83
2023-04-21T20:59:20.811Z,91.80
2023-04-21T21:01:47.366Z,91.69
2023-04-21T21:04:14.296Z,91.30
2023-04-21T21:06:41.057Z,90.09
2023-04-21T21:09:07.577Z,89.67
2023-04-21T21:11:34.121Z,89.78
2023-04-21T21:14:00.576Z,90.09
2023-04-21T21:16:27.308Z,91.24
2023-04-21T21:18:53.823Z,90.69
2023-04-21T21:21:20.449Z,91.23
2023-04-21T21:23:46.954Z,91.16
2023-04-21T21:26:13.433Z,91.30
2023-04-21T21:28:40.036Z,91.34
2023-04-21T21:31:09.991Z,91.17
2023-04-21T21:33:44.055Z,90.97
2023-04-21T21:36:16.344Z,91.37
2023-04-21T21:38:43.136Z,91.89
2023-04-21T21:41:14.475Z,91.78
2023-04-21T21:43:41.161Z,90.57
2023-04-21T21:46:08.494Z,91.31
2023-04-21T21:48:36.379Z,91.33
2023-04-21T21:51:04.247Z,91.19
2023-04-21T21:53:30.784Z,91.99
2023-04-21T21:55:57.366Z,92.16
2023-04-21T21:58:23.882Z,92.04
2023-04-21T22:00:52.113Z,91.58
2023-04-21T22:03:19.832Z,92.07
2023-04-21T22:05:47.080Z,92.17
2023-04-21T22:08:15.546Z,92.54
2023-04-21T22:10:43.246Z,92.79
2023-04-21T22:13:09.844Z,92.79
2023-04-21T22:15:37.310Z,92.83
2023-04-21T22:18:04.482Z,92.77
2023-04-21T22:20:31.091Z,92.49
2023-04-21T22:22:57.541Z,92.12
2023-04-21T22:25:26.882Z,92.76
2023-04-21T22:27:57.379Z,92.64
2023-04-21T22:30:24.409Z,92.98
2023-04-21T22:32:51.037Z,92.77
2023-04-21T22:35:17.628Z,93.11
2023-04-21T22:37:44.110Z,93.54
2023-04-21T22:40:10.898Z,94.01
2023-04-21T22:42:37.571Z,93.71
2023-04-21T22:45:07.319Z,94.12
2023-04-21T22:47:34.432Z,93.89
2023-04-21T22:50:04.115Z,93.31
2023-04-21T22:52:30.717Z,93.45
2023-04-21T22:54:57.173Z,94.19
2023-04-21T22:57:23.923Z,94.35
2023-04-21T22:59:51.904Z,93.89
2023-04-21T23:02:18.488Z,94.03
2023-04-21T23:04:45.566Z,94.07
2023-04-21T23:07:12.199Z,94.14
2023-04-21T23:09:39.042Z,94.15
2023-04-21T23:12:08.572Z,93.89
2023-04-21T23:14:35.149Z,94.12
2023-04-21T23:17:01.751Z,94.36
2023-04-21T23:19:28.289Z,94.29
2023-04-21T23:21:54.857Z,94.40
2023-04-21T23:24:21.372Z,94.96
2023-04-21T23:26:47.889Z,94.68
2023-04-21T23:29:14.477Z,94.55
2023-04-21T23:31:41.101Z,94.36
2023-04-21T23:34:07.704Z,94.25
2023-04-21T23:36:34.370Z,94.50
2023-04-21T23:39:00.976Z,94.29
2023-04-21T23:41:27.682Z,94.69
2023-04-21T23:43:54.358Z,94.52
2023-04-21T23:46:20.875Z,94.70
2023-04-21T23:48:47.426Z,94.14
2023-04-21T23:51:14.066Z,94.33
2023-04-21T23:53:40.633Z,94.08
2023-04-21T23:56:07.365Z,94.85
2023-04-21T23:58:33.868Z,94.20
